Thomas G. Thompson — KTDQ — position and weather

sailwx.info

Track history (hours):
 
Tides and Currents Weather Stations Pressure Air Temp Water Temp Dewpoint Dewpoint Depression Visibility Wind Speed Wind Dir Waves Ship Positions

Oceanographic research ship Thomas G. Thompson (USA)

Ship's website: http://www.ocean.washington.edu/vessels/TGT/tgt.html

Detailed information on ship capabilities available from University of Delaware's Ocean Information Center.

Owner: UNIVERSITY OF WASHINGTON, SEATTLE, WA. More information available from US FCC via Universal Licensing System and Coast Guard Vessel Documentation Center.

Last reported at 2019-Nov-06 04:59 UTC. Time now 2019-Nov-20 09:14 UTC.
Position S 35°06' W 055°12'.
Warning: this ship's position is 14 days out of date.

Type: Other ship. MMSI: 366345000.

Date/timePositionNaut miles runAvg speedWind from/ knotsBaromVisibWave heightAir tempDewpointWater temp
2019-Nov-06 04:59S 35°06' W 055°12'1312.8
2019-Nov-06 04:00S 35°05' W 055°27'2512.6
2019-Nov-06 02:00S 35°04' W 055°58'2010.1
2019-Nov-06 00:00S 35°10' W 056°21'1812.1
2019-Nov-05 22:30S 35°10' W 056°44'59 5.0
2019-Nov-05 10:37S 34°45' W 057°49'13 5.5
2019-Nov-05 08:15S 34°46' W 057°33'5511.2
2019-Nov-05 03:19S 35°10' W 056°33'28 9.9
2019-Nov-05 00:30S 35°00' W 056°01'1112.0
2019-Nov-04 23:36S 35°04' W 055°49'910.1
2019-Nov-04 22:44S 35°08' W 055°39'9 2.6
2019-Nov-04 19:18S 35°06' W 055°50'22 2.4
2019-Nov-04 09:59S 34°54' W 056°12'0 0.0
2019-Nov-04 05:29S 34°54' W 056°12'0 0.0
2019-Nov-04 04:59S 34°54' W 056°12'0 0.0
2019-Nov-04 02:56S 34°54' W 056°12'0 0.0
2019-Nov-04 00:59S 34°54' W 056°12'0 0.0
2019-Nov-03 23:59S 34°54' W 056°12'0 0.0
2019-Nov-03 21:29S 34°54' W 056°12'0 0.0
2019-Nov-03 20:59S 34°54' W 056°12'0 0.0
2019-Nov-03 16:59S 34°54' W 056°12'0 0.0
2019-Nov-03 14:59S 34°54' W 056°12'0 0.0
2019-Nov-03 14:29S 34°54' W 056°12'0 0.0
2019-Nov-03 13:29S 34°54' W 056°12'0 0.0
2019-Nov-03 09:59S 34°54' W 056°12'0 0.0
2019-Nov-03 07:59S 34°54' W 056°12'0 0.0
2019-Nov-03 06:29S 34°54' W 056°12'0 0.0
2019-Nov-03 05:56S 34°54' W 056°12'0 0.0
2019-Nov-03 01:29S 34°54' W 056°12'0 0.0
2019-Nov-02 21:59S 34°54' W 056°12'0 0.0
2019-Nov-02 21:29S 34°54' W 056°12'0 0.0
2019-Nov-02 20:29S 34°54' W 056°12'0 0.0
2019-Nov-02 19:29S 34°54' W 056°12'0 0.0
2019-Nov-02 18:59S 34°54' W 056°12'0 0.0
2019-Nov-02 18:29S 34°54' W 056°12'0 0.0
2019-Nov-02 17:59S 34°54' W 056°12'0 0.0
2019-Nov-02 17:29S 34°54' W 056°12'0 0.0
2019-Nov-02 09:58S 34°54' W 056°12'0 0.0
2019-Nov-02 08:58S 34°54' W 056°12'0 0.0
2019-Nov-02 08:28S 34°54' W 056°12'0 0.0
2019-Nov-02 07:28S 34°54' W 056°12'0 0.0
2019-Nov-02 05:58S 34°54' W 056°12'0 0.0
2019-Nov-02 04:58S 34°54' W 056°12'0 0.0
2019-Nov-02 01:58S 34°54' W 056°12'0 0.0
2019-Nov-02 01:28S 34°54' W 056°12'0 0.0
2019-Nov-02 00:58S 34°54' W 056°12'0 0.0
2019-Nov-02 00:28S 34°54' W 056°12'0 0.0
2019-Nov-01 23:58S 34°54' W 056°12'0 0.0
2019-Nov-01 23:28S 34°54' W 056°12'0 0.0
2019-Nov-01 22:58S 34°54' W 056°12'0 0.0
2019-Nov-01 22:28S 34°54' W 056°12'0 0.0
2019-Nov-01 21:58S 34°54' W 056°12'0 0.0
2019-Nov-01 21:28S 34°54' W 056°12'0 0.0
2019-Nov-01 20:58S 34°54' W 056°12'0 0.0
2019-Nov-01 20:28S 34°54' W 056°12'0 0.0
2019-Nov-01 19:55S 34°54' W 056°12'0 0.0
2019-Nov-01 19:28S 34°54' W 056°12'0 0.0
2019-Nov-01 18:58S 34°54' W 056°12'0 0.0
2019-Nov-01 18:28S 34°54' W 056°12'0 0.0
2019-Nov-01 17:58S 34°54' W 056°12'0 0.0
2019-Nov-01 17:28S 34°54' W 056°12'0 0.0
2019-Nov-01 16:58S 34°54' W 056°12'0 0.0
2019-Nov-01 16:28S 34°54' W 056°12'0 0.0
2019-Nov-01 15:58S 34°54' W 056°12'0 0.0
2019-Nov-01 15:28S 34°54' W 056°12'0 0.0
2019-Nov-01 14:58S 34°54' W 056°12'0 0.0
2019-Nov-01 14:28S 34°54' W 056°12'0 0.0
2019-Nov-01 13:58S 34°54' W 056°12'0 0.0
2019-Nov-01 13:28S 34°54' W 056°12'0 0.0
2019-Nov-01 12:58S 34°54' W 056°12'0 0.0
2019-Nov-01 12:28S 34°54' W 056°12'0 0.0
2019-Nov-01 11:58S 34°54' W 056°12'0 0.0
2019-Nov-01 11:28S 34°54' W 056°12'0 0.0
2019-Nov-01 10:58S 34°54' W 056°12'0 0.0
2019-Nov-01 10:28S 34°54' W 056°12'0 0.0
2019-Nov-01 09:58S 34°54' W 056°12'0 0.0
2019-Nov-01 09:28S 34°54' W 056°12'0 0.0
2019-Nov-01 08:58S 34°54' W 056°12'0 0.0
2019-Nov-01 08:28S 34°54' W 056°12'0 0.0
2019-Nov-01 07:58S 34°54' W 056°12'0 0.0
2019-Nov-01 07:28S 34°54' W 056°12'0 0.0
2019-Nov-01 06:58S 34°54' W 056°12'0 0.0
2019-Nov-01 06:28S 34°54' W 056°12'0 0.0
2019-Nov-01 05:58S 34°54' W 056°12'0 0.0
2019-Nov-01 05:28S 34°54' W 056°12'0 0.0
2019-Nov-01 04:58S 34°54' W 056°12'0 0.0
2019-Nov-01 04:25S 34°54' W 056°12'0 0.0
2019-Nov-01 03:58S 34°54' W 056°12'0 0.0
2019-Nov-01 03:28S 34°54' W 056°12'0 0.0
2019-Nov-01 02:58S 34°54' W 056°12'0 0.0
2019-Nov-01 02:28S 34°54' W 056°12'0 0.0
2019-Nov-01 01:58S 34°54' W 056°12'0 0.0
2019-Nov-01 01:28S 34°54' W 056°12'0 0.0
2019-Nov-01 00:58S 34°54' W 056°12'0 0.0
2019-Nov-01 00:28S 34°54' W 056°12'0 0.0
2019-Oct-31 23:58S 34°54' W 056°12'0 0.0
2019-Oct-31 23:28S 34°54' W 056°12'0 0.0
2019-Oct-31 22:58S 34°54' W 056°12'0 0.0
2019-Oct-31 22:28S 34°54' W 056°12'0 0.0
2019-Oct-31 21:58S 34°54' W 056°12'0 0.0
2019-Oct-31 21:30S 34°54' W 056°12'0 0.0
2019-Oct-31 21:00S 34°54' W 056°12'0 0.0
2019-Oct-31 20:30S 34°54' W 056°12'0 0.0
2019-Oct-31 20:00S 34°54' W 056°12'0 0.0
2019-Oct-31 19:25S 34°54' W 056°12'0 0.0
2019-Oct-31 19:00S 34°54' W 056°12'0 0.4
2019-Oct-31 18:30S 34°54' W 056°12'3 5.7
2019-Oct-31 18:00S 34°56' W 056°13'2 3.6
2019-Oct-31 17:30S 34°58' W 056°13'2 4.8
2019-Oct-31 17:00S 35°01' W 056°12'0 0.0
2019-Oct-31 16:31S 35°01' W 056°12'0 0.0
2019-Oct-31 16:00S 35°01' W 056°12'0 0.0
2019-Oct-31 15:30S 35°01' W 056°12'0 0.0
2019-Oct-31 15:01S 35°01' W 056°12'1 1.5
2019-Oct-31 14:31S 35°00' W 056°12'4 7.5
2019-Oct-31 14:00S 35°01' W 056°07'611.7
2019-Oct-31 13:30S 35°02' W 055°60'1112.1
2019-Oct-31 12:36S 35°04' W 055°47'511.9
2019-Oct-31 12:10S 35°05' W 055°41'211.7
2019-Oct-31 12:00S 35°05' W 055°38'611.8
2019-Oct-31 11:29S 35°05' W 055°31'2811.5
2019-Oct-31 09:02S 35°09' W 054°57'5 1.2
2019-Oct-31 04:55S 35°13' W 054°59'0 0.0
2019-Oct-31 04:15S 35°13' W 054°59'  
Track history (hours):
 
Tides and Currents Weather Stations Pressure Air Temp Water Temp Dewpoint Dewpoint Depression Visibility Wind Speed Wind Dir Waves Ship Positions

Oceanographic research ship Thomas G. Thompson (USA)

Ship's website: http://www.ocean.washington.edu/vessels/TGT/tgt.html

Detailed information on ship capabilities available from University of Delaware's Ocean Information Center.

Owner: UNIVERSITY OF WASHINGTON, SEATTLE, WA. More information available from US FCC via Universal Licensing System and Coast Guard Vessel Documentation Center.

Last reported at 2019-Nov-06 04:59 UTC. Time now 2019-Nov-20 09:14 UTC.
Position S 35°06' W 055°12'.
Warning: this ship's position is 14 days out of date.

Type: Other ship. MMSI: 366345000.

Date/timePositionNaut miles runAvg speedWind from/ knotsBaromVisibWave heightAir tempDewpointWater temp
2019-Nov-06 04:59S 35°06' W 055°12'1312.8
2019-Nov-06 04:00S 35°05' W 055°27'2512.6
2019-Nov-06 02:00S 35°04' W 055°58'2010.1
2019-Nov-06 00:00S 35°10' W 056°21'1812.1
2019-Nov-05 22:30S 35°10' W 056°44'59 5.0
2019-Nov-05 10:37S 34°45' W 057°49'13 5.5
2019-Nov-05 08:15S 34°46' W 057°33'5511.2
2019-Nov-05 03:19S 35°10' W 056°33'28 9.9
2019-Nov-05 00:30S 35°00' W 056°01'1112.0
2019-Nov-04 23:36S 35°04' W 055°49'910.1
2019-Nov-04 22:44S 35°08' W 055°39'9 2.6
2019-Nov-04 19:18S 35°06' W 055°50'22 2.4
2019-Nov-04 09:59S 34°54' W 056°12'0 0.0
2019-Nov-04 05:29S 34°54' W 056°12'0 0.0
2019-Nov-04 04:59S 34°54' W 056°12'0 0.0
2019-Nov-04 02:56S 34°54' W 056°12'0 0.0
2019-Nov-04 00:59S 34°54' W 056°12'0 0.0
2019-Nov-03 23:59S 34°54' W 056°12'0 0.0
2019-Nov-03 21:29S 34°54' W 056°12'0 0.0
2019-Nov-03 20:59S 34°54' W 056°12'0 0.0
2019-Nov-03 16:59S 34°54' W 056°12'0 0.0
2019-Nov-03 14:59S 34°54' W 056°12'0 0.0
2019-Nov-03 14:29S 34°54' W 056°12'0 0.0
2019-Nov-03 13:29S 34°54' W 056°12'0 0.0
2019-Nov-03 09:59S 34°54' W 056°12'0 0.0
2019-Nov-03 07:59S 34°54' W 056°12'0 0.0
2019-Nov-03 06:29S 34°54' W 056°12'0 0.0
2019-Nov-03 05:56S 34°54' W 056°12'0 0.0
2019-Nov-03 01:29S 34°54' W 056°12'0 0.0
2019-Nov-02 21:59S 34°54' W 056°12'0 0.0
2019-Nov-02 21:29S 34°54' W 056°12'0 0.0
2019-Nov-02 20:29S 34°54' W 056°12'0 0.0
2019-Nov-02 19:29S 34°54' W 056°12'0 0.0
2019-Nov-02 18:59S 34°54' W 056°12'0 0.0
2019-Nov-02 18:29S 34°54' W 056°12'0 0.0
2019-Nov-02 17:59S 34°54' W 056°12'0 0.0
2019-Nov-02 17:29S 34°54' W 056°12'0 0.0
2019-Nov-02 09:58S 34°54' W 056°12'0 0.0
2019-Nov-02 08:58S 34°54' W 056°12'0 0.0
2019-Nov-02 08:28S 34°54' W 056°12'0 0.0
2019-Nov-02 07:28S 34°54' W 056°12'0 0.0
2019-Nov-02 05:58S 34°54' W 056°12'0 0.0
2019-Nov-02 04:58S 34°54' W 056°12'0 0.0
2019-Nov-02 01:58S 34°54' W 056°12'0 0.0
2019-Nov-02 01:28S 34°54' W 056°12'0 0.0
2019-Nov-02 00:58S 34°54' W 056°12'0 0.0
2019-Nov-02 00:28S 34°54' W 056°12'0 0.0
2019-Nov-01 23:58S 34°54' W 056°12'0 0.0
2019-Nov-01 23:28S 34°54' W 056°12'0 0.0
2019-Nov-01 22:58S 34°54' W 056°12'0 0.0
2019-Nov-01 22:28S 34°54' W 056°12'0 0.0
2019-Nov-01 21:58S 34°54' W 056°12'0 0.0
2019-Nov-01 21:28S 34°54' W 056°12'0 0.0
2019-Nov-01 20:58S 34°54' W 056°12'0 0.0
2019-Nov-01 20:28S 34°54' W 056°12'0 0.0
2019-Nov-01 19:55S 34°54' W 056°12'0 0.0
2019-Nov-01 19:28S 34°54' W 056°12'0 0.0
2019-Nov-01 18:58S 34°54' W 056°12'0 0.0
2019-Nov-01 18:28S 34°54' W 056°12'0 0.0
2019-Nov-01 17:58S 34°54' W 056°12'0 0.0
2019-Nov-01 17:28S 34°54' W 056°12'0 0.0
2019-Nov-01 16:58S 34°54' W 056°12'0 0.0
2019-Nov-01 16:28S 34°54' W 056°12'0 0.0
2019-Nov-01 15:58S 34°54' W 056°12'0 0.0
2019-Nov-01 15:28S 34°54' W 056°12'0 0.0
2019-Nov-01 14:58S 34°54' W 056°12'0 0.0
2019-Nov-01 14:28S 34°54' W 056°12'0 0.0
2019-Nov-01 13:58S 34°54' W 056°12'0 0.0
2019-Nov-01 13:28S 34°54' W 056°12'0 0.0
2019-Nov-01 12:58S 34°54' W 056°12'0 0.0
2019-Nov-01 12:28S 34°54' W 056°12'0 0.0
2019-Nov-01 11:58S 34°54' W 056°12'0 0.0
2019-Nov-01 11:28S 34°54' W 056°12'0 0.0
2019-Nov-01 10:58S 34°54' W 056°12'0 0.0
2019-Nov-01 10:28S 34°54' W 056°12'0 0.0
2019-Nov-01 09:58S 34°54' W 056°12'0 0.0
2019-Nov-01 09:28S 34°54' W 056°12'0 0.0
2019-Nov-01 08:58S 34°54' W 056°12'0 0.0
2019-Nov-01 08:28S 34°54' W 056°12'0 0.0
2019-Nov-01 07:58S 34°54' W 056°12'0 0.0
2019-Nov-01 07:28S 34°54' W 056°12'0 0.0
2019-Nov-01 06:58S 34°54' W 056°12'0 0.0
2019-Nov-01 06:28S 34°54' W 056°12'0 0.0
2019-Nov-01 05:58S 34°54' W 056°12'0 0.0
2019-Nov-01 05:28S 34°54' W 056°12'0 0.0
2019-Nov-01 04:58S 34°54' W 056°12'0 0.0
2019-Nov-01 04:25S 34°54' W 056°12'0 0.0
2019-Nov-01 03:58S 34°54' W 056°12'0 0.0
2019-Nov-01 03:28S 34°54' W 056°12'0 0.0
2019-Nov-01 02:58S 34°54' W 056°12'0 0.0
2019-Nov-01 02:28S 34°54' W 056°12'0 0.0
2019-Nov-01 01:58S 34°54' W 056°12'0 0.0
2019-Nov-01 01:28S 34°54' W 056°12'0 0.0
2019-Nov-01 00:58S 34°54' W 056°12'0 0.0
2019-Nov-01 00:28S 34°54' W 056°12'0 0.0
2019-Oct-31 23:58S 34°54' W 056°12'0 0.0
2019-Oct-31 23:28S 34°54' W 056°12'0 0.0
2019-Oct-31 22:58S 34°54' W 056°12'0 0.0
2019-Oct-31 22:28S 34°54' W 056°12'0 0.0
2019-Oct-31 21:58S 34°54' W 056°12'0 0.0
2019-Oct-31 21:30S 34°54' W 056°12'0 0.0
2019-Oct-31 21:00S 34°54' W 056°12'0 0.0
2019-Oct-31 20:30S 34°54' W 056°12'0 0.0
2019-Oct-31 20:00S 34°54' W 056°12'0 0.0
2019-Oct-31 19:25S 34°54' W 056°12'0 0.0
2019-Oct-31 19:00S 34°54' W 056°12'0 0.4
2019-Oct-31 18:30S 34°54' W 056°12'3 5.7
2019-Oct-31 18:00S 34°56' W 056°13'2 3.6
2019-Oct-31 17:30S 34°58' W 056°13'2 4.8
2019-Oct-31 17:00S 35°01' W 056°12'0 0.0
2019-Oct-31 16:31S 35°01' W 056°12'0 0.0
2019-Oct-31 16:00S 35°01' W 056°12'0 0.0
2019-Oct-31 15:30S 35°01' W 056°12'0 0.0
2019-Oct-31 15:01S 35°01' W 056°12'1 1.5
2019-Oct-31 14:31S 35°00' W 056°12'4 7.5
2019-Oct-31 14:00S 35°01' W 056°07'611.7
2019-Oct-31 13:30S 35°02' W 055°60'1112.1
2019-Oct-31 12:36S 35°04' W 055°47'511.9
2019-Oct-31 12:10S 35°05' W 055°41'211.7
2019-Oct-31 12:00S 35°05' W 055°38'611.8
2019-Oct-31 11:29S 35°05' W 055°31'2811.5
2019-Oct-31 09:02S 35°09' W 054°57'5 1.2
2019-Oct-31 04:55S 35°13' W 054°59'0 0.0
2019-Oct-31 04:15S 35°13' W 054°59'  

Dump ship's entire track history